Canadian Empress — VX6095 — position and weather

sailwx.info

Track history (hours):
 
Tides and Currents Weather Stations Pressure Air Temp Water Temp Dewpoint Dewpoint Depression Visibility Wind Speed Wind Dir Waves Ship Positions

Canadian Empress

Last reported at 2016-Aug-21 00:18 UTC. Time now 2016-Aug-24 01:34 UTC.
Position N 44°14' W 076°25'.

Length 32 m.

Type: Passenger vessel. MMSI: 314954012.

Date/timePositionNaut miles runAvg speedWind from/ knotsBaromVisibWave heightAir tempDewpointWater temp
2016-Aug-21 00:18N 44°14' W 076°25'3 4.4
2016-Aug-20 23:34N 44°13' W 076°30'1 0.2
2016-Aug-20 18:05N 44°13' W 076°28'0 1.0
2016-Aug-20 17:34N 44°13' W 076°29'  
2016-Aug-16 23:34N 44°14' W 076°26'2 2.2
2016-Aug-16 22:34N 44°14' W 076°29'0 0.0
2016-Aug-16 18:03N 44°14' W 076°29'1 1.9
2016-Aug-16 17:34N 44°13' W 076°27'126 2.5
2016-Aug-14 14:09N 45°19' W 073°55'1 1.3
2016-Aug-14 13:30N 45°19' W 073°55'0 0.0
2016-Aug-14 12:29N 45°19' W 073°55'7 7.3
2016-Aug-14 11:32N 45°24' W 073°47'4 0.3
2016-Aug-13 21:22N 45°26' W 073°42'0 0.0
2016-Aug-13 20:28N 45°26' W 073°42'0 0.0
2016-Aug-13 17:31N 45°26' W 073°42'8 8.1
2016-Aug-13 16:33N 45°25' W 073°53'4 3.9
2016-Aug-13 15:34N 45°25' W 073°58'12 9.2
2016-Aug-13 14:16N 45°30' W 074°13'  
Track history (hours):
 
Tides and Currents Weather Stations Pressure Air Temp Water Temp Dewpoint Dewpoint Depression Visibility Wind Speed Wind Dir Waves Ship Positions

Canadian Empress

Last reported at 2016-Aug-21 00:18 UTC. Time now 2016-Aug-24 01:34 UTC.
Position N 44°14' W 076°25'.

Length 32 m.

Type: Passenger vessel. MMSI: 314954012.

Date/timePositionNaut miles runAvg speedWind from/ knotsBaromVisibWave heightAir tempDewpointWater temp
2016-Aug-21 00:18N 44°14' W 076°25'3 4.4
2016-Aug-20 23:34N 44°13' W 076°30'1 0.2
2016-Aug-20 18:05N 44°13' W 076°28'0 1.0
2016-Aug-20 17:34N 44°13' W 076°29'  
2016-Aug-16 23:34N 44°14' W 076°26'2 2.2
2016-Aug-16 22:34N 44°14' W 076°29'0 0.0
2016-Aug-16 18:03N 44°14' W 076°29'1 1.9
2016-Aug-16 17:34N 44°13' W 076°27'126 2.5
2016-Aug-14 14:09N 45°19' W 073°55'1 1.3
2016-Aug-14 13:30N 45°19' W 073°55'0 0.0
2016-Aug-14 12:29N 45°19' W 073°55'7 7.3
2016-Aug-14 11:32N 45°24' W 073°47'4 0.3
2016-Aug-13 21:22N 45°26' W 073°42'0 0.0
2016-Aug-13 20:28N 45°26' W 073°42'0 0.0
2016-Aug-13 17:31N 45°26' W 073°42'8 8.1
2016-Aug-13 16:33N 45°25' W 073°53'4 3.9
2016-Aug-13 15:34N 45°25' W 073°58'12 9.2
2016-Aug-13 14:16N 45°30' W 074°13'  

Dump ship's entire track history